sensor_id;sensor_type;location;lat;lon;timestamp;temperature;humidity
13470;DHT22;6807;48.682;9.032;2022-10-22T00:01:40;12.10;99.90
13470;DHT22;6807;48.682;9.032;2022-10-22T00:04:07;12.10;99.90
13470;DHT22;6807;48.682;9.032;2022-10-22T00:06:34;12.10;99.90
13470;DHT22;6807;48.682;9.032;2022-10-22T00:09:01;12.10;99.90
13470;DHT22;6807;48.682;9.032;2022-10-22T00:11:28;12.10;99.90
13470;DHT22;6807;48.682;9.032;2022-10-22T00:13:55;12.10;99.90
13470;DHT22;6807;48.682;9.032;2022-10-22T00:16:23;12.10;99.90
13470;DHT22;6807;48.682;9.032;2022-10-22T00:18:51;12.10;99.90
13470;DHT22;6807;48.682;9.032;2022-10-22T00:21:19;12.10;99.90
13470;DHT22;6807;48.682;9.032;2022-10-22T00:23:46;12.10;99.90
13470;DHT22;6807;48.682;9.032;2022-10-22T00:26:13;12.10;99.90
13470;DHT22;6807;48.682;9.032;2022-10-22T00:28:40;12.00;99.90
13470;DHT22;6807;48.682;9.032;2022-10-22T00:31:07;12.00;99.90
13470;DHT22;6807;48.682;9.032;2022-10-22T00:33:34;12.00;99.90
13470;DHT22;6807;48.682;9.032;2022-10-22T00:36:02;12.00;99.90
13470;DHT22;6807;48.682;9.032;2022-10-22T00:38:29;12.00;99.90
13470;DHT22;6807;48.682;9.032;2022-10-22T00:40:55;12.00;99.90
13470;DHT22;6807;48.682;9.032;2022-10-22T00:43:24;12.10;99.90
13470;DHT22;6807;48.682;9.032;2022-10-22T00:45:51;12.10;99.90
13470;DHT22;6807;48.682;9.032;2022-10-22T00:48:20;12.00;99.90
13470;DHT22;6807;48.682;9.032;2022-10-22T00:50:50;12.00;99.90
13470;DHT22;6807;48.682;9.032;2022-10-22T00:53:25;12.00;99.90
13470;DHT22;6807;48.682;9.032;2022-10-22T00:55:53;11.90;99.90
13470;DHT22;6807;48.682;9.032;2022-10-22T00:58:23;11.90;99.90
13470;DHT22;6807;48.682;9.032;2022-10-22T01:00:50;12.00;99.90
13470;DHT22;6807;48.682;9.032;2022-10-22T01:03:17;12.00;99.90
13470;DHT22;6807;48.682;9.032;2022-10-22T01:05:48;12.00;99.90
13470;DHT22;6807;48.682;9.032;2022-10-22T01:08:24;12.00;99.90
13470;DHT22;6807;48.682;9.032;2022-10-22T01:11:00;12.00;99.90
13470;DHT22;6807;48.682;9.032;2022-10-22T01:13:36;12.00;99.90
13470;DHT22;6807;48.682;9.032;2022-10-22T01:16:10;12.00;99.90
13470;DHT22;6807;48.682;9.032;2022-10-22T01:18:47;12.00;99.90
13470;DHT22;6807;48.682;9.032;2022-10-22T01:21:24;12.00;99.90
13470;DHT22;6807;48.682;9.032;2022-10-22T01:24:14;12.00;99.90
13470;DHT22;6807;48.682;9.032;2022-10-22T01:29:59;12.00;99.90
13470;DHT22;6807;48.682;9.032;2022-10-22T01:32:29;12.00;99.90
13470;DHT22;6807;48.682;9.032;2022-10-22T01:34:59;12.10;99.90
13470;DHT22;6807;48.682;9.032;2022-10-22T01:37:29;12.00;99.90
13470;DHT22;6807;48.682;9.032;2022-10-22T01:39:59;12.00;99.90
13470;DHT22;6807;48.682;9.032;2022-10-22T01:42:26;12.00;99.90
13470;DHT22;6807;48.682;9.032;2022-10-22T01:44:54;12.00;99.90
13470;DHT22;6807;48.682;9.032;2022-10-22T01:47:38;12.00;99.90
13470;DHT22;6807;48.682;9.032;2022-10-22T01:50:27;12.00;99.90
13470;DHT22;6807;48.682;9.032;2022-10-22T01:53:10;12.00;99.90
13470;DHT22;6807;48.682;9.032;2022-10-22T01:55:49;12.00;99.90
13470;DHT22;6807;48.682;9.032;2022-10-22T01:58:26;12.00;99.90
13470;DHT22;6807;48.682;9.032;2022-10-22T02:01:02;11.90;99.90
13470;DHT22;6807;48.682;9.032;2022-10-22T02:03:37;11.90;99.90
13470;DHT22;6807;48.682;9.032;2022-10-22T02:06:10;11.80;99.90
13470;DHT22;6807;48.682;9.032;2022-10-22T02:08:40;12.30;99.90
13470;DHT22;6807;48.682;9.032;2022-10-22T02:11:07;11.90;99.90
13470;DHT22;6807;48.682;9.032;2022-10-22T02:13:38;11.90;99.90
13470;DHT22;6807;48.682;9.032;2022-10-22T02:16:07;11.90;99.90
13470;DHT22;6807;48.682;9.032;2022-10-22T02:18:39;11.90;99.90
13470;DHT22;6807;48.682;9.032;2022-10-22T02:21:07;11.90;99.90
13470;DHT22;6807;48.682;9.032;2022-10-22T02:23:34;11.80;99.90
13470;DHT22;6807;48.682;9.032;2022-10-22T02:26:06;11.80;99.90
13470;DHT22;6807;48.682;9.032;2022-10-22T02:28:37;11.80;99.90
13470;DHT22;6807;48.682;9.032;2022-10-22T02:31:11;11.80;99.90
13470;DHT22;6807;48.682;9.032;2022-10-22T02:33:43;11.80;99.90
13470;DHT22;6807;48.682;9.032;2022-10-22T02:36:12;11.80;99.90
13470;DHT22;6807;48.682;9.032;2022-10-22T02:38:41;11.80;99.90
13470;DHT22;6807;48.682;9.032;2022-10-22T02:41:09;11.80;99.90
13470;DHT22;6807;48.682;9.032;2022-10-22T02:43:41;11.80;99.90
13470;DHT22;6807;48.682;9.032;2022-10-22T02:46:09;11.80;99.90
13470;DHT22;6807;48.682;9.032;2022-10-22T02:48:36;11.80;99.90
13470;DHT22;6807;48.682;9.032;2022-10-22T02:51:05;11.90;99.90
13470;DHT22;6807;48.682;9.032;2022-10-22T02:53:32;11.90;99.90
13470;DHT22;6807;48.682;9.032;2022-10-22T02:56:00;11.90;99.90
13470;DHT22;6807;48.682;9.032;2022-10-22T02:58:26;11.90;99.90
13470;DHT22;6807;48.682;9.032;2022-10-22T03:00:54;11.90;99.90
13470;DHT22;6807;48.682;9.032;2022-10-22T03:03:21;12.70;99.90
13470;DHT22;6807;48.682;9.032;2022-10-22T03:05:49;11.90;99.90
13470;DHT22;6807;48.682;9.032;2022-10-22T03:08:17;11.90;99.90
13470;DHT22;6807;48.682;9.032;2022-10-22T03:10:46;11.90;99.90
13470;DHT22;6807;48.682;9.032;2022-10-22T03:13:14;12.00;99.90
13470;DHT22;6807;48.682;9.032;2022-10-22T03:15:40;11.90;99.90
13470;DHT22;6807;48.682;9.032;2022-10-22T03:18:07;11.90;99.90
13470;DHT22;6807;48.682;9.032;2022-10-22T03:20:36;12.50;99.90
13470;DHT22;6807;48.682;9.032;2022-10-22T03:23:04;13.10;99.90
13470;DHT22;6807;48.682;9.032;2022-10-22T03:25:33;12.50;99.90
13470;DHT22;6807;48.682;9.032;2022-10-22T03:28:03;11.90;99.90
13470;DHT22;6807;48.682;9.032;2022-10-22T03:30:31;11.90;99.90
13470;DHT22;6807;48.682;9.032;2022-10-22T03:32:58;11.90;99.90
13470;DHT22;6807;48.682;9.032;2022-10-22T03:35:25;11.90;99.90
13470;DHT22;6807;48.682;9.032;2022-10-22T03:37:52;12.00;99.90
13470;DHT22;6807;48.682;9.032;2022-10-22T03:40:19;12.00;99.90
13470;DHT22;6807;48.682;9.032;2022-10-22T03:42:47;11.90;99.90
13470;DHT22;6807;48.682;9.032;2022-10-22T03:45:14;11.90;99.90
13470;DHT22;6807;48.682;9.032;2022-10-22T03:47:41;11.90;99.90
13470;DHT22;6807;48.682;9.032;2022-10-22T03:50:09;13.40;99.90
13470;DHT22;6807;48.682;9.032;2022-10-22T03:52:38;11.80;99.90
13470;DHT22;6807;48.682;9.032;2022-10-22T03:55:06;11.80;99.90
13470;DHT22;6807;48.682;9.032;2022-10-22T03:57:33;11.80;99.90
13470;DHT22;6807;48.682;9.032;2022-10-22T04:00:03;11.80;99.90
13470;DHT22;6807;48.682;9.032;2022-10-22T04:02:30;11.80;99.90
13470;DHT22;6807;48.682;9.032;2022-10-22T04:04:58;11.70;99.90
13470;DHT22;6807;48.682;9.032;2022-10-22T04:07:26;11.70;99.90
13470;DHT22;6807;48.682;9.032;2022-10-22T04:09:59;11.70;99.90
13470;DHT22;6807;48.682;9.032;2022-10-22T04:12:26;11.70;99.90
13470;DHT22;6807;48.682;9.032;2022-10-22T04:14:54;11.80;99.90
13470;DHT22;6807;48.682;9.032;2022-10-22T04:17:22;11.80;99.90
13470;DHT22;6807;48.682;9.032;2022-10-22T04:19:49;12.40;99.90
13470;DHT22;6807;48.682;9.032;2022-10-22T04:22:16;11.70;99.90
13470;DHT22;6807;48.682;9.032;2022-10-22T04:24:43;11.60;99.90
13470;DHT22;6807;48.682;9.032;2022-10-22T04:27:10;11.60;99.90
13470;DHT22;6807;48.682;9.032;2022-10-22T04:29:37;11.60;99.90
13470;DHT22;6807;48.682;9.032;2022-10-22T04:32:04;11.60;99.90
13470;DHT22;6807;48.682;9.032;2022-10-22T04:34:33;11.50;99.90
13470;DHT22;6807;48.682;9.032;2022-10-22T04:37:00;11.50;99.90
13470;DHT22;6807;48.682;9.032;2022-10-22T04:39:27;11.50;99.90
13470;DHT22;6807;48.682;9.032;2022-10-22T04:41:54;11.50;99.90
13470;DHT22;6807;48.682;9.032;2022-10-22T04:44:21;12.40;99.90
13470;DHT22;6807;48.682;9.032;2022-10-22T04:46:48;11.50;99.90
13470;DHT22;6807;48.682;9.032;2022-10-22T04:49:15;11.50;99.90
13470;DHT22;6807;48.682;9.032;2022-10-22T04:51:44;11.50;99.90
13470;DHT22;6807;48.682;9.032;2022-10-22T04:54:11;11.50;99.90
13470;DHT22;6807;48.682;9.032;2022-10-22T04:56:39;11.50;99.90
13470;DHT22;6807;48.682;9.032;2022-10-22T05:02:04;11.40;99.90
13470;DHT22;6807;48.682;9.032;2022-10-22T05:04:35;11.40;99.90
13470;DHT22;6807;48.682;9.032;2022-10-22T05:07:25;11.40;99.90
13470;DHT22;6807;48.682;9.032;2022-10-22T05:09:59;11.40;99.90
13470;DHT22;6807;48.682;9.032;2022-10-22T05:12:31;11.40;99.90
13470;DHT22;6807;48.682;9.032;2022-10-22T05:15:08;11.70;99.90
13470;DHT22;6807;48.682;9.032;2022-10-22T05:17:42;11.50;99.90
13470;DHT22;6807;48.682;9.032;2022-10-22T05:20:15;12.70;99.90
13470;DHT22;6807;48.682;9.032;2022-10-22T05:22:43;11.50;99.90
13470;DHT22;6807;48.682;9.032;2022-10-22T05:25:18;11.50;99.90
13470;DHT22;6807;48.682;9.032;2022-10-22T05:27:48;11.50;99.90
13470;DHT22;6807;48.682;9.032;2022-10-22T05:30:15;11.50;99.90
13470;DHT22;6807;48.682;9.032;2022-10-22T05:32:42;11.50;99.90
13470;DHT22;6807;48.682;9.032;2022-10-22T05:35:27;11.40;99.90
13470;DHT22;6807;48.682;9.032;2022-10-22T05:38:05;11.50;99.90
13470;DHT22;6807;48.682;9.032;2022-10-22T05:40:32;12.50;99.90
13470;DHT22;6807;48.682;9.032;2022-10-22T05:42:59;11.50;99.90
13470;DHT22;6807;48.682;9.032;2022-10-22T05:46:18;11.50;99.90
13470;DHT22;6807;48.682;9.032;2022-10-22T05:48:50;11.50;99.90
13470;DHT22;6807;48.682;9.032;2022-10-22T05:51:26;12.40;99.90
13470;DHT22;6807;48.682;9.032;2022-10-22T05:53:56;12.80;99.90
13470;DHT22;6807;48.682;9.032;2022-10-22T05:56:24;11.50;99.90
13470;DHT22;6807;48.682;9.032;2022-10-22T05:58:51;11.50;99.90
13470;DHT22;6807;48.682;9.032;2022-10-22T06:01:21;11.40;99.90
13470;DHT22;6807;48.682;9.032;2022-10-22T06:03:51;11.40;99.90
13470;DHT22;6807;48.682;9.032;2022-10-22T06:06:51;13.00;99.90
13470;DHT22;6807;48.682;9.032;2022-10-22T06:09:23;11.50;99.90
13470;DHT22;6807;48.682;9.032;2022-10-22T06:11:50;12.60;99.90
13470;DHT22;6807;48.682;9.032;2022-10-22T06:14:18;12.00;99.90
13470;DHT22;6807;48.682;9.032;2022-10-22T06:16:45;12.70;99.90
13470;DHT22;6807;48.682;9.032;2022-10-22T06:19:14;11.50;99.90
13470;DHT22;6807;48.682;9.032;2022-10-22T06:21:42;11.40;99.90
13470;DHT22;6807;48.682;9.032;2022-10-22T06:24:09;12.30;99.90
13470;DHT22;6807;48.682;9.032;2022-10-22T06:26:38;12.70;99.90
13470;DHT22;6807;48.682;9.032;2022-10-22T06:29:06;12.80;99.90
13470;DHT22;6807;48.682;9.032;2022-10-22T06:31:33;11.50;99.90
13470;DHT22;6807;48.682;9.032;2022-10-22T06:34:02;11.70;99.90
13470;DHT22;6807;48.682;9.032;2022-10-22T06:36:29;13.00;99.90
13470;DHT22;6807;48.682;9.032;2022-10-22T06:38:56;11.80;99.90
13470;DHT22;6807;48.682;9.032;2022-10-22T06:41:23;13.20;99.90
13470;DHT22;6807;48.682;9.032;2022-10-22T06:43:52;12.10;99.90
13470;DHT22;6807;48.682;9.032;2022-10-22T06:46:21;12.10;99.90
13470;DHT22;6807;48.682;9.032;2022-10-22T06:48:49;12.70;99.90
13470;DHT22;6807;48.682;9.032;2022-10-22T06:51:17;12.80;99.90
13470;DHT22;6807;48.682;9.032;2022-10-22T06:53:44;12.50;99.90
13470;DHT22;6807;48.682;9.032;2022-10-22T06:56:12;12.30;99.90
13470;DHT22;6807;48.682;9.032;2022-10-22T06:58:39;12.70;99.90
13470;DHT22;6807;48.682;9.032;2022-10-22T07:01:09;12.40;99.90
13470;DHT22;6807;48.682;9.032;2022-10-22T07:03:37;13.30;99.90
13470;DHT22;6807;48.682;9.032;2022-10-22T07:06:05;13.80;99.90
13470;DHT22;6807;48.682;9.032;2022-10-22T07:08:33;12.60;99.90
13470;DHT22;6807;48.682;9.032;2022-10-22T07:11:05;13.50;99.90
13470;DHT22;6807;48.682;9.032;2022-10-22T07:13:33;12.70;99.90
13470;DHT22;6807;48.682;9.032;2022-10-22T07:16:00;14.20;99.90
13470;DHT22;6807;48.682;9.032;2022-10-22T07:18:28;13.60;99.90
13470;DHT22;6807;48.682;9.032;2022-10-22T07:20:55;13.90;99.90
13470;DHT22;6807;48.682;9.032;2022-10-22T07:23:22;13.50;99.90
13470;DHT22;6807;48.682;9.032;2022-10-22T07:25:49;13.00;99.90
13470;DHT22;6807;48.682;9.032;2022-10-22T07:28:16;14.60;99.90
13470;DHT22;6807;48.682;9.032;2022-10-22T07:30:43;14.20;99.90
13470;DHT22;6807;48.682;9.032;2022-10-22T07:33:10;13.10;99.90
13470;DHT22;6807;48.682;9.032;2022-10-22T07:35:39;13.10;99.90
13470;DHT22;6807;48.682;9.032;2022-10-22T07:38:07;13.10;99.90
13470;DHT22;6807;48.682;9.032;2022-10-22T07:40:35;13.10;99.90
13470;DHT22;6807;48.682;9.032;2022-10-22T07:43:02;13.30;99.90
13470;DHT22;6807;48.682;9.032;2022-10-22T07:45:29;14.00;99.90
13470;DHT22;6807;48.682;9.032;2022-10-22T07:47:56;13.60;99.90
13470;DHT22;6807;48.682;9.032;2022-10-22T07:50:24;14.00;99.90
13470;DHT22;6807;48.682;9.032;2022-10-22T07:52:52;14.20;99.90
13470;DHT22;6807;48.682;9.032;2022-10-22T07:55:19;13.80;99.90
13470;DHT22;6807;48.682;9.032;2022-10-22T07:57:46;14.00;99.90
13470;DHT22;6807;48.682;9.032;2022-10-22T08:00:13;14.70;99.90
13470;DHT22;6807;48.682;9.032;2022-10-22T08:02:40;14.20;99.90
13470;DHT22;6807;48.682;9.032;2022-10-22T08:05:10;15.40;99.90
13470;DHT22;6807;48.682;9.032;2022-10-22T08:07:44;15.10;99.90
13470;DHT22;6807;48.682;9.032;2022-10-22T08:10:13;14.80;99.90
13470;DHT22;6807;48.682;9.032;2022-10-22T08:12:41;15.70;99.90
13470;DHT22;6807;48.682;9.032;2022-10-22T08:15:08;15.00;99.90
13470;DHT22;6807;48.682;9.032;2022-10-22T08:17:35;15.40;99.90
13470;DHT22;6807;48.682;9.032;2022-10-22T08:20:03;17.10;99.90
13470;DHT22;6807;48.682;9.032;2022-10-22T08:22:30;18.40;99.90
13470;DHT22;6807;48.682;9.032;2022-10-22T08:24:57;20.30;99.90
13470;DHT22;6807;48.682;9.032;2022-10-22T08:27:26;20.20;99.90
13470;DHT22;6807;48.682;9.032;2022-10-22T08:29:53;20.30;99.90
13470;DHT22;6807;48.682;9.032;2022-10-22T08:32:20;19.40;99.90
13470;DHT22;6807;48.682;9.032;2022-10-22T08:34:46;19.60;99.90
13470;DHT22;6807;48.682;9.032;2022-10-22T08:37:13;20.10;99.90
13470;DHT22;6807;48.682;9.032;2022-10-22T08:39:41;20.30;99.90
13470;DHT22;6807;48.682;9.032;2022-10-22T08:42:31;20.50;99.90
13470;DHT22;6807;48.682;9.032;2022-10-22T08:45:09;21.30;99.90
13470;DHT22;6807;48.682;9.032;2022-10-22T08:47:55;21.50;99.90
13470;DHT22;6807;48.682;9.032;2022-10-22T08:50:41;21.50;99.90
13470;DHT22;6807;48.682;9.032;2022-10-22T08:53:13;22.50;99.90
13470;DHT22;6807;48.682;9.032;2022-10-22T08:55:41;23.10;99.90
13470;DHT22;6807;48.682;9.032;2022-10-22T08:58:17;23.60;99.90
13470;DHT22;6807;48.682;9.032;2022-10-22T09:00:51;22.90;99.90
13470;DHT22;6807;48.682;9.032;2022-10-22T09:03:37;23.20;99.90
13470;DHT22;6807;48.682;9.032;2022-10-22T09:06:10;24.30;99.90
13470;DHT22;6807;48.682;9.032;2022-10-22T09:08:38;24.50;99.90
13470;DHT22;6807;48.682;9.032;2022-10-22T09:11:13;24.30;99.90
13470;DHT22;6807;48.682;9.032;2022-10-22T09:13:44;24.20;99.90
13470;DHT22;6807;48.682;9.032;2022-10-22T09:16:15;25.10;99.90
13470;DHT22;6807;48.682;9.032;2022-10-22T09:18:58;24.70;99.90
13470;DHT22;6807;48.682;9.032;2022-10-22T09:21:33;24.20;99.90
13470;DHT22;6807;48.682;9.032;2022-10-22T09:24:05;24.80;99.90
13470;DHT22;6807;48.682;9.032;2022-10-22T09:26:37;26.10;99.90
13470;DHT22;6807;48.682;9.032;2022-10-22T09:29:08;25.20;99.90
13470;DHT22;6807;48.682;9.032;2022-10-22T09:31:39;25.20;99.90
13470;DHT22;6807;48.682;9.032;2022-10-22T09:34:05;24.70;99.90
13470;DHT22;6807;48.682;9.032;2022-10-22T09:36:33;24.70;99.90
13470;DHT22;6807;48.682;9.032;2022-10-22T09:39:00;24.60;99.90
13470;DHT22;6807;48.682;9.032;2022-10-22T09:41:29;25.00;99.90
13470;DHT22;6807;48.682;9.032;2022-10-22T09:43:56;24.50;99.90
13470;DHT22;6807;48.682;9.032;2022-10-22T09:46:27;25.00;99.90
13470;DHT22;6807;48.682;9.032;2022-10-22T09:49:01;25.10;99.90
13470;DHT22;6807;48.682;9.032;2022-10-22T09:51:40;24.90;99.90
13470;DHT22;6807;48.682;9.032;2022-10-22T09:54:16;25.10;99.90
13470;DHT22;6807;48.682;9.032;2022-10-22T09:56:49;25.90;99.90
13470;DHT22;6807;48.682;9.032;2022-10-22T09:59:18;26.80;99.90
13470;DHT22;6807;48.682;9.032;2022-10-22T10:01:56;26.10;99.90
13470;DHT22;6807;48.682;9.032;2022-10-22T10:04:25;26.20;99.90
13470;DHT22;6807;48.682;9.032;2022-10-22T10:06:53;26.20;99.90
13470;DHT22;6807;48.682;9.032;2022-10-22T10:09:34;26.10;99.90
13470;DHT22;6807;48.682;9.032;2022-10-22T10:12:07;26.10;99.90
13470;DHT22;6807;48.682;9.032;2022-10-22T10:14:44;25.60;99.90
13470;DHT22;6807;48.682;9.032;2022-10-22T10:17:22;26.10;99.90
13470;DHT22;6807;48.682;9.032;2022-10-22T10:19:58;25.10;99.90
13470;DHT22;6807;48.682;9.032;2022-10-22T10:22:40;25.30;99.90
13470;DHT22;6807;48.682;9.032;2022-10-22T10:25:35;26.20;99.90
13470;DHT22;6807;48.682;9.032;2022-10-22T10:28:19;26.50;99.90
13470;DHT22;6807;48.682;9.032;2022-10-22T10:30:53;25.90;99.90
13470;DHT22;6807;48.682;9.032;2022-10-22T10:33:33;25.80;99.90
13470;DHT22;6807;48.682;9.032;2022-10-22T10:36:07;25.90;99.90
13470;DHT22;6807;48.682;9.032;2022-10-22T10:38:43;26.30;1.00
13470;DHT22;6807;48.682;9.032;2022-10-22T10:41:19;26.50;1.00
13470;DHT22;6807;48.682;9.032;2022-10-22T10:44:15;27.00;1.00
13470;DHT22;6807;48.682;9.032;2022-10-22T10:46:54;26.90;99.90
13470;DHT22;6807;48.682;9.032;2022-10-22T10:49:29;26.30;1.00
13470;DHT22;6807;48.682;9.032;2022-10-22T10:52:05;26.50;1.00
13470;DHT22;6807;48.682;9.032;2022-10-22T10:54:47;27.10;1.00
13470;DHT22;6807;48.682;9.032;2022-10-22T10:57:24;27.10;1.00
13470;DHT22;6807;48.682;9.032;2022-10-22T11:00:04;26.80;99.90
13470;DHT22;6807;48.682;9.032;2022-10-22T11:02:59;26.70;99.90
13470;DHT22;6807;48.682;9.032;2022-10-22T11:05:37;25.90;99.90
13470;DHT22;6807;48.682;9.032;2022-10-22T11:08:09;26.90;99.90
13470;DHT22;6807;48.682;9.032;2022-10-22T11:10:40;27.50;99.90
13470;DHT22;6807;48.682;9.032;2022-10-22T11:13:16;27.80;99.90
13470;DHT22;6807;48.682;9.032;2022-10-22T11:15:46;28.30;99.90
13470;DHT22;6807;48.682;9.032;2022-10-22T11:18:19;28.80;99.90
13470;DHT22;6807;48.682;9.032;2022-10-22T11:20:56;28.20;1.00
13470;DHT22;6807;48.682;9.032;2022-10-22T11:23:31;26.70;1.00
13470;DHT22;6807;48.682;9.032;2022-10-22T11:26:03;24.60;1.00
13470;DHT22;6807;48.682;9.032;2022-10-22T11:28:36;24.10;1.00
13470;DHT22;6807;48.682;9.032;2022-10-22T11:31:12;25.00;1.00
13470;DHT22;6807;48.682;9.032;2022-10-22T11:33:44;24.60;1.00
13470;DHT22;6807;48.682;9.032;2022-10-22T11:36:13;23.80;1.00
13470;DHT22;6807;48.682;9.032;2022-10-22T11:38:42;25.80;1.00
13470;DHT22;6807;48.682;9.032;2022-10-22T11:41:11;27.10;1.00
13470;DHT22;6807;48.682;9.032;2022-10-22T11:43:56;28.60;52.50
13470;DHT22;6807;48.682;9.032;2022-10-22T11:46:28;28.20;3.60
13470;DHT22;6807;48.682;9.032;2022-10-22T11:49:04;26.40;1.00
13470;DHT22;6807;48.682;9.032;2022-10-22T11:51:34;25.90;45.20
13470;DHT22;6807;48.682;9.032;2022-10-22T11:54:07;25.60;60.40
13470;DHT22;6807;48.682;9.032;2022-10-22T11:56:51;25.80;1.00
13470;DHT22;6807;48.682;9.032;2022-10-22T11:59:37;25.40;1.00
13470;DHT22;6807;48.682;9.032;2022-10-22T12:02:23;25.30;64.60
13470;DHT22;6807;48.682;9.032;2022-10-22T12:04:50;27.50;1.00
13470;DHT22;6807;48.682;9.032;2022-10-22T12:07:33;28.50;1.00
13470;DHT22;6807;48.682;9.032;2022-10-22T12:10:04;29.00;1.00
13470;DHT22;6807;48.682;9.032;2022-10-22T12:12:35;27.80;90.00
13470;DHT22;6807;48.682;9.032;2022-10-22T12:15:22;26.70;99.90
13470;DHT22;6807;48.682;9.032;2022-10-22T12:17:50;27.00;99.90
13470;DHT22;6807;48.682;9.032;2022-10-22T12:20:16;27.40;96.60
13470;DHT22;6807;48.682;9.032;2022-10-22T12:22:45;28.10;99.90
13470;DHT22;6807;48.682;9.032;2022-10-22T12:25:18;28.00;99.90
13470;DHT22;6807;48.682;9.032;2022-10-22T12:27:50;29.50;99.90
13470;DHT22;6807;48.682;9.032;2022-10-22T12:30:19;26.40;90.80
13470;DHT22;6807;48.682;9.032;2022-10-22T12:32:51;24.40;70.40
13470;DHT22;6807;48.682;9.032;2022-10-22T12:35:21;23.90;99.90
13470;DHT22;6807;48.682;9.032;2022-10-22T12:37:50;25.50;99.90
13470;DHT22;6807;48.682;9.032;2022-10-22T12:40:20;27.30;99.90
13470;DHT22;6807;48.682;9.032;2022-10-22T12:42:49;29.10;71.30
13470;DHT22;6807;48.682;9.032;2022-10-22T12:45:16;28.40;62.30
13470;DHT22;6807;48.682;9.032;2022-10-22T12:47:45;28.20;44.60
13470;DHT22;6807;48.682;9.032;2022-10-22T12:50:17;28.70;29.70
13470;DHT22;6807;48.682;9.032;2022-10-22T12:52:45;27.90;35.20
13470;DHT22;6807;48.682;9.032;2022-10-22T12:55:18;28.90;1.00
13470;DHT22;6807;48.682;9.032;2022-10-22T12:57:50;28.50;39.70
13470;DHT22;6807;48.682;9.032;2022-10-22T13:00:22;28.90;99.90
13470;DHT22;6807;48.682;9.032;2022-10-22T13:02:50;28.40;20.60
13470;DHT22;6807;48.682;9.032;2022-10-22T13:05:22;29.30;16.50
13470;DHT22;6807;48.682;9.032;2022-10-22T13:07:53;29.10;39.70
13470;DHT22;6807;48.682;9.032;2022-10-22T13:10:24;28.90;55.30
13470;DHT22;6807;48.682;9.032;2022-10-22T13:12:55;29.00;99.90
13470;DHT22;6807;48.682;9.032;2022-10-22T13:15:34;29.00;99.00
13470;DHT22;6807;48.682;9.032;2022-10-22T13:18:03;29.00;96.60
13470;DHT22;6807;48.682;9.032;2022-10-22T13:20:30;27.50;99.90
13470;DHT22;6807;48.682;9.032;2022-10-22T13:22:58;27.50;99.90
13470;DHT22;6807;48.682;9.032;2022-10-22T13:25:30;27.00;99.90
13470;DHT22;6807;48.682;9.032;2022-10-22T13:27:58;25.90;99.90
13470;DHT22;6807;48.682;9.032;2022-10-22T13:30:28;27.00;99.90
13470;DHT22;6807;48.682;9.032;2022-10-22T13:32:56;26.70;99.90
13470;DHT22;6807;48.682;9.032;2022-10-22T13:35:25;28.40;87.00
13470;DHT22;6807;48.682;9.032;2022-10-22T13:37:53;26.50;89.80
13470;DHT22;6807;48.682;9.032;2022-10-22T13:40:21;25.30;42.10
13470;DHT22;6807;48.682;9.032;2022-10-22T13:42:49;25.70;51.80
13470;DHT22;6807;48.682;9.032;2022-10-22T13:45:18;26.50;95.30
13470;DHT22;6807;48.682;9.032;2022-10-22T13:47:48;27.30;61.90
13470;DHT22;6807;48.682;9.032;2022-10-22T13:50:17;27.00;74.00
13470;DHT22;6807;48.682;9.032;2022-10-22T13:52:46;27.60;53.50
13470;DHT22;6807;48.682;9.032;2022-10-22T13:55:17;27.40;58.40
13470;DHT22;6807;48.682;9.032;2022-10-22T13:57:45;28.20;2.80
13470;DHT22;6807;48.682;9.032;2022-10-22T14:00:16;27.10;67.60
13470;DHT22;6807;48.682;9.032;2022-10-22T14:02:46;27.60;82.40
13470;DHT22;6807;48.682;9.032;2022-10-22T14:05:14;27.50;1.00
13470;DHT22;6807;48.682;9.032;2022-10-22T14:07:42;27.40;1.00
13470;DHT22;6807;48.682;9.032;2022-10-22T14:10:14;26.90;1.00
13470;DHT22;6807;48.682;9.032;2022-10-22T14:12:41;26.90;1.00
13470;DHT22;6807;48.682;9.032;2022-10-22T14:15:10;27.30;1.00
13470;DHT22;6807;48.682;9.032;2022-10-22T14:17:39;27.00;1.00
13470;DHT22;6807;48.682;9.032;2022-10-22T14:20:13;26.90;1.00
13470;DHT22;6807;48.682;9.032;2022-10-22T14:22:41;27.20;1.00
13470;DHT22;6807;48.682;9.032;2022-10-22T14:25:10;26.60;1.00
13470;DHT22;6807;48.682;9.032;2022-10-22T14:27:38;26.70;1.00
13470;DHT22;6807;48.682;9.032;2022-10-22T14:30:07;26.60;1.00
13470;DHT22;6807;48.682;9.032;2022-10-22T14:32:34;26.80;1.00
13470;DHT22;6807;48.682;9.032;2022-10-22T14:35:03;26.50;1.00
13470;DHT22;6807;48.682;9.032;2022-10-22T14:37:30;26.80;1.00
13470;DHT22;6807;48.682;9.032;2022-10-22T14:39:57;26.00;1.00
13470;DHT22;6807;48.682;9.032;2022-10-22T14:42:27;25.90;1.00
13470;DHT22;6807;48.682;9.032;2022-10-22T14:44:54;26.30;1.00
13470;DHT22;6807;48.682;9.032;2022-10-22T14:47:21;26.00;1.00
13470;DHT22;6807;48.682;9.032;2022-10-22T14:49:47;26.50;1.00
13470;DHT22;6807;48.682;9.032;2022-10-22T14:52:16;25.30;1.00
13470;DHT22;6807;48.682;9.032;2022-10-22T14:57:10;25.50;1.00
13470;DHT22;6807;48.682;9.032;2022-10-22T14:59:39;25.30;1.00
13470;DHT22;6807;48.682;9.032;2022-10-22T15:02:09;25.70;1.00
13470;DHT22;6807;48.682;9.032;2022-10-22T15:04:37;25.40;1.00
13470;DHT22;6807;48.682;9.032;2022-10-22T15:07:04;25.10;1.00
13470;DHT22;6807;48.682;9.032;2022-10-22T15:09:32;25.40;1.00
13470;DHT22;6807;48.682;9.032;2022-10-22T15:11:59;25.20;1.00
13470;DHT22;6807;48.682;9.032;2022-10-22T15:14:25;25.10;1.00
13470;DHT22;6807;48.682;9.032;2022-10-22T15:16:52;24.80;1.00
13470;DHT22;6807;48.682;9.032;2022-10-22T15:19:19;25.10;1.00
13470;DHT22;6807;48.682;9.032;2022-10-22T15:21:46;24.10;1.00
13470;DHT22;6807;48.682;9.032;2022-10-22T15:24:13;23.60;1.00
13470;DHT22;6807;48.682;9.032;2022-10-22T15:26:41;23.20;1.00
13470;DHT22;6807;48.682;9.032;2022-10-22T15:29:09;23.10;1.00
13470;DHT22;6807;48.682;9.032;2022-10-22T15:31:44;23.10;1.00
13470;DHT22;6807;48.682;9.032;2022-10-22T15:34:11;23.20;1.00
13470;DHT22;6807;48.682;9.032;2022-10-22T15:36:38;22.80;1.00
13470;DHT22;6807;48.682;9.032;2022-10-22T15:39:08;22.60;1.00
13470;DHT22;6807;48.682;9.032;2022-10-22T15:41:36;22.30;1.00
13470;DHT22;6807;48.682;9.032;2022-10-22T15:44:05;21.40;1.00
13470;DHT22;6807;48.682;9.032;2022-10-22T15:46:33;20.80;1.00
13470;DHT22;6807;48.682;9.032;2022-10-22T15:49:01;20.20;1.00
13470;DHT22;6807;48.682;9.032;2022-10-22T15:51:29;19.80;1.00
13470;DHT22;6807;48.682;9.032;2022-10-22T15:53:57;19.30;1.00
13470;DHT22;6807;48.682;9.032;2022-10-22T15:56:27;18.80;1.00
13470;DHT22;6807;48.682;9.032;2022-10-22T15:59:12;18.60;1.00
13470;DHT22;6807;48.682;9.032;2022-10-22T16:01:40;17.60;1.00
13470;DHT22;6807;48.682;9.032;2022-10-22T16:04:07;18.90;1.00
13470;DHT22;6807;48.682;9.032;2022-10-22T16:07:10;16.80;1.00
13470;DHT22;6807;48.682;9.032;2022-10-22T16:09:39;16.40;48.70
13470;DHT22;6807;48.682;9.032;2022-10-22T16:12:17;17.50;37.90
13470;DHT22;6807;48.682;9.032;2022-10-22T16:14:45;16.80;59.50
13470;DHT22;6807;48.682;9.032;2022-10-22T16:17:15;15.90;48.70
13470;DHT22;6807;48.682;9.032;2022-10-22T16:19:42;15.60;76.10
13470;DHT22;6807;48.682;9.032;2022-10-22T16:22:09;17.00;99.90